createdAt,value
2023-02-07T00:01:34.659Z,-4.41
2023-02-07T00:04:02.590Z,-4.44
2023-02-07T00:06:34.258Z,-4.46
2023-02-07T00:09:06.723Z,-4.48
2023-02-07T00:11:36.096Z,-4.51
2023-02-07T00:14:05.065Z,-4.60
2023-02-07T00:16:33.030Z,-4.64
2023-02-07T00:19:00.664Z,-4.63
2023-02-07T00:21:29.400Z,-4.62
2023-02-07T00:23:57.680Z,-4.60
2023-02-07T00:26:27.825Z,-4.59
2023-02-07T00:28:56.944Z,-4.58
2023-02-07T00:31:30.000Z,-4.55
2023-02-07T00:34:04.897Z,-4.52
2023-02-07T00:36:34.916Z,-4.48
2023-02-07T00:39:08.796Z,-4.46
2023-02-07T00:41:36.939Z,-4.45
2023-02-07T00:44:05.447Z,-4.45
2023-02-07T00:46:34.707Z,-4.45
2023-02-07T00:49:04.629Z,-4.48
2023-02-07T00:51:33.069Z,-4.50
2023-02-07T00:54:01.264Z,-4.54
2023-02-07T00:56:31.680Z,-4.58
2023-02-07T00:58:59.663Z,-4.62
2023-02-07T01:01:27.488Z,-4.64
2023-02-07T01:03:57.679Z,-4.66
2023-02-07T01:06:27.627Z,-4.68
2023-02-07T01:08:59.185Z,-4.71
2023-02-07T01:11:29.187Z,-4.73
2023-02-07T01:14:02.048Z,-4.76
2023-02-07T01:16:35.411Z,-4.77
2023-02-07T01:19:09.156Z,-4.76
2023-02-07T01:21:38.210Z,-4.75
2023-02-07T01:24:09.381Z,-4.75
2023-02-07T01:26:38.661Z,-4.76
2023-02-07T01:29:07.475Z,-4.78
2023-02-07T01:31:36.028Z,-4.78
2023-02-07T01:34:05.630Z,-4.78
2023-02-07T01:36:33.811Z,-4.78
2023-02-07T01:39:03.326Z,-4.77
2023-02-07T01:41:31.065Z,-4.75
2023-02-07T01:44:27.212Z,-4.75
2023-02-07T01:46:56.389Z,-4.79
2023-02-07T01:49:33.774Z,-4.81
2023-02-07T01:52:10.473Z,-4.85
2023-02-07T01:54:40.149Z,-4.90
2023-02-07T01:57:14.276Z,-4.94
2023-02-07T01:59:43.604Z,-4.97
2023-02-07T02:02:17.325Z,-4.99
2023-02-07T02:04:51.109Z,-5.02
2023-02-07T02:07:19.406Z,-5.04
2023-02-07T02:09:47.313Z,-5.05
2023-02-07T02:13:01.856Z,-5.06
2023-02-07T02:16:23.116Z,-5.09
2023-02-07T02:19:28.982Z,-5.13
2023-02-07T02:22:05.494Z,-5.15
2023-02-07T02:25:11.622Z,-5.14
2023-02-07T02:28:07.463Z,-5.15
2023-02-07T02:31:42.205Z,-5.15
2023-02-07T02:34:24.624Z,-5.14
2023-02-07T02:37:17.535Z,-5.09
2023-02-07T02:40:13.462Z,-5.06
2023-02-07T02:43:06.462Z,-5.03
2023-02-07T02:46:06.956Z,-5.00
2023-02-07T02:48:36.641Z,-5.00
2023-02-07T02:51:05.212Z,-5.00
2023-02-07T02:53:33.146Z,-5.00
2023-02-07T02:56:29.151Z,-5.00
2023-02-07T02:59:16.749Z,-5.04
2023-02-07T03:02:26.365Z,-5.08
2023-02-07T03:05:38.896Z,-5.13
2023-02-07T03:08:24.214Z,-5.18
2023-02-07T03:11:18.535Z,-5.20
2023-02-07T03:14:22.122Z,-5.23
2023-02-07T03:17:13.769Z,-5.24
2023-02-07T03:20:03.250Z,-5.23
2023-02-07T03:22:34.103Z,-5.22
2023-02-07T03:25:05.134Z,-5.20
2023-02-07T03:27:35.902Z,-5.19
2023-02-07T03:30:10.215Z,-5.20
2023-02-07T03:32:43.291Z,-5.20
2023-02-07T03:35:31.836Z,-5.21
2023-02-07T03:38:04.542Z,-5.22
2023-02-07T03:40:44.436Z,-5.23
2023-02-07T03:43:27.219Z,-5.24
2023-02-07T03:45:56.275Z,-5.24
2023-02-07T03:48:24.764Z,-5.23
2023-02-07T03:50:52.698Z,-5.25
2023-02-07T03:53:21.209Z,-5.27
2023-02-07T03:55:49.444Z,-5.32
2023-02-07T03:58:17.437Z,-5.38
2023-02-07T04:00:45.568Z,-5.41
2023-02-07T04:03:13.585Z,-5.44
2023-02-07T04:05:45.093Z,-5.45
2023-02-07T04:08:12.914Z,-5.45
2023-02-07T04:10:40.772Z,-5.42
2023-02-07T04:13:08.606Z,-5.39
2023-02-07T04:15:36.729Z,-5.36
2023-02-07T04:18:05.588Z,-5.33
2023-02-07T04:20:33.429Z,-5.31
2023-02-07T04:23:01.461Z,-5.29
2023-02-07T04:25:29.180Z,-5.27
2023-02-07T04:27:57.813Z,-5.24
2023-02-07T04:30:25.986Z,-5.22
2023-02-07T04:32:54.361Z,-5.20
2023-02-07T04:35:22.394Z,-5.19
2023-02-07T04:37:50.168Z,-5.16
2023-02-07T04:40:18.198Z,-5.15
2023-02-07T04:42:46.169Z,-5.15
2023-02-07T04:45:14.358Z,-5.17
2023-02-07T04:47:42.462Z,-5.18
2023-02-07T04:50:10.344Z,-5.20
2023-02-07T04:52:39.894Z,-5.22
2023-02-07T04:55:10.001Z,-5.27
2023-02-07T04:57:38.325Z,-5.31
2023-02-07T05:00:06.518Z,-5.35
2023-02-07T05:02:34.978Z,-5.38
2023-02-07T05:05:03.456Z,-5.42
2023-02-07T05:07:37.607Z,-5.43
2023-02-07T05:10:06.125Z,-5.45
2023-02-07T05:12:33.967Z,-5.47
2023-02-07T05:15:01.822Z,-5.47
2023-02-07T05:17:34.316Z,-5.46
2023-02-07T05:20:03.032Z,-5.43
2023-02-07T05:22:31.702Z,-5.39
2023-02-07T05:24:59.964Z,-5.36
2023-02-07T05:27:27.873Z,-5.32
2023-02-07T05:29:55.952Z,-5.27
2023-02-07T05:32:43.710Z,-5.22
2023-02-07T05:35:18.910Z,-5.17
2023-02-07T05:37:46.912Z,-5.09
2023-02-07T05:40:15.122Z,-5.01
2023-02-07T05:42:43.762Z,-4.93
2023-02-07T05:45:11.972Z,-4.84
2023-02-07T05:47:40.164Z,-4.74
2023-02-07T05:50:08.536Z,-4.65
2023-02-07T05:52:36.610Z,-4.56
2023-02-07T05:55:05.184Z,-4.46
2023-02-07T05:57:33.361Z,-4.37
2023-02-07T06:00:03.657Z,-4.29
2023-02-07T06:02:40.769Z,-4.21
2023-02-07T06:05:12.114Z,-4.13
2023-02-07T06:07:40.952Z,-4.04
2023-02-07T06:10:10.549Z,-3.97
2023-02-07T06:12:42.408Z,-3.89
2023-02-07T06:15:10.333Z,-3.81
2023-02-07T06:17:41.719Z,-3.76
2023-02-07T06:20:11.671Z,-3.70
2023-02-07T06:22:39.975Z,-3.64
2023-02-07T06:25:11.273Z,-3.58
2023-02-07T06:27:41.407Z,-3.52
2023-02-07T06:30:13.032Z,-3.46
2023-02-07T06:32:40.985Z,-3.39
2023-02-07T06:35:26.333Z,-3.32
2023-02-07T06:37:57.438Z,-3.27
2023-02-07T06:40:25.516Z,-3.22
2023-02-07T06:42:54.084Z,-3.16
2023-02-07T06:45:21.953Z,-3.10
2023-02-07T06:47:50.171Z,-3.04
2023-02-07T06:50:18.310Z,-2.98
2023-02-07T06:52:46.787Z,-2.95
2023-02-07T06:55:15.524Z,-2.91
2023-02-07T06:57:52.296Z,-2.86
2023-02-07T07:00:21.322Z,-2.82
2023-02-07T07:02:49.852Z,-2.76
2023-02-07T07:05:25.382Z,-2.71
2023-02-07T07:07:59.059Z,-2.67
2023-02-07T07:10:27.910Z,-2.68
2023-02-07T07:13:02.610Z,-2.69
2023-02-07T07:16:02.091Z,-2.70
2023-02-07T07:18:38.759Z,-2.69
2023-02-07T07:21:28.304Z,-2.67
2023-02-07T07:24:30.714Z,-2.66
2023-02-07T07:27:04.429Z,-2.62
2023-02-07T07:29:37.395Z,-2.56
2023-02-07T07:32:34.680Z,-2.53
2023-02-07T07:35:14.872Z,-2.49
2023-02-07T07:37:49.228Z,-2.53
2023-02-07T07:40:27.036Z,-2.50
2023-02-07T07:42:59.933Z,-2.44
2023-02-07T07:45:41.524Z,-2.36
2023-02-07T07:48:19.096Z,-2.26
2023-02-07T07:50:51.237Z,-2.19
2023-02-07T07:53:28.140Z,-2.14
2023-02-07T07:56:08.330Z,-2.12
2023-02-07T07:59:12.083Z,-2.12
2023-02-07T08:01:53.036Z,-2.11
2023-02-07T08:04:23.970Z,-2.09
2023-02-07T08:07:06.762Z,-2.05
2023-02-07T08:09:53.690Z,-2.06
2023-02-07T08:13:06.747Z,-2.06
2023-02-07T08:19:25.407Z,-1.98
2023-02-07T08:21:58.953Z,-1.91
2023-02-07T08:24:30.163Z,-1.81
2023-02-07T08:27:03.061Z,-1.72
2023-02-07T08:29:50.175Z,-1.64
2023-02-07T08:32:35.048Z,-1.59
2023-02-07T08:35:12.849Z,-1.54
2023-02-07T08:37:41.107Z,-1.47
2023-02-07T08:40:12.662Z,-1.42
2023-02-07T08:42:46.408Z,-1.37
2023-02-07T08:45:15.616Z,-1.32
2023-02-07T08:47:46.094Z,-1.29
2023-02-07T08:50:24.458Z,-1.29
2023-02-07T08:53:05.695Z,-1.28
2023-02-07T08:55:36.447Z,-1.29
2023-02-07T08:58:15.400Z,-1.27
2023-02-07T09:00:48.884Z,-1.25
2023-02-07T09:03:27.984Z,-1.23
2023-02-07T09:06:11.080Z,-1.22
2023-02-07T09:08:51.356Z,-1.17
2023-02-07T09:11:38.013Z,-1.13
2023-02-07T09:14:26.121Z,-1.10
2023-02-07T09:17:05.131Z,-1.08
2023-02-07T09:19:45.567Z,-1.05
2023-02-07T09:22:17.292Z,-1.02
2023-02-07T09:25:01.453Z,-0.99
2023-02-07T09:27:41.740Z,-0.96
2023-02-07T09:30:18.602Z,-0.90
2023-02-07T09:32:54.244Z,-0.85
2023-02-07T09:35:50.808Z,-0.80
2023-02-07T09:38:25.514Z,-0.79
2023-02-07T09:42:30.462Z,-0.79
2023-02-07T09:45:33.642Z,-0.76
2023-02-07T09:49:31.140Z,-0.74
2023-02-07T09:52:19.811Z,-0.73
2023-02-07T09:55:05.293Z,-0.71
2023-02-07T09:58:13.952Z,-0.67
2023-02-07T10:01:37.096Z,-0.61
2023-02-07T10:04:30.379Z,-0.53
2023-02-07T10:07:21.159Z,-0.46
2023-02-07T10:10:02.889Z,-0.39
2023-02-07T10:13:09.731Z,-0.32
2023-02-07T10:15:58.148Z,-0.29
2023-02-07T10:18:54.492Z,-0.26
2023-02-07T10:22:20.344Z,-0.21
2023-02-07T10:25:24.332Z,-0.19
2023-02-07T10:28:58.853Z,-0.19
2023-02-07T10:32:17.676Z,-0.20
2023-02-07T10:34:58.163Z,-0.16
2023-02-07T10:37:31.633Z,-0.11
2023-02-07T10:40:08.065Z,-0.05
2023-02-07T10:42:55.462Z,-0.01
2023-02-07T10:45:34.408Z,0.04
2023-02-07T10:48:25.873Z,0.07
2023-02-07T10:51:45.927Z,0.11
2023-02-07T10:54:57.567Z,0.11
2023-02-07T10:57:50.949Z,0.08
2023-02-07T11:00:40.457Z,0.08
2023-02-07T11:03:48.092Z,0.08
2023-02-07T11:06:33.371Z,0.08
2023-02-07T11:09:36.547Z,0.10
2023-02-07T11:12:29.061Z,0.10
2023-02-07T11:15:57.144Z,0.11
2023-02-07T11:18:51.668Z,0.11
2023-02-07T11:22:28.056Z,0.14
2023-02-07T11:25:46.558Z,0.16
2023-02-07T11:28:41.824Z,0.20
2023-02-07T11:31:50.276Z,0.25
2023-02-07T11:35:20.753Z,0.26
2023-02-07T11:38:45.127Z,0.27
2023-02-07T11:42:07.762Z,0.28
2023-02-07T11:45:25.767Z,0.27
2023-02-07T11:52:25.650Z,0.28
2023-02-07T11:55:47.106Z,0.33
2023-02-07T11:58:54.836Z,0.33
2023-02-07T12:01:50.384Z,0.30
2023-02-07T12:04:45.478Z,0.28
2023-02-07T12:07:48.684Z,0.27
2023-02-07T12:10:42.411Z,0.27
2023-02-07T12:13:37.921Z,0.27
2023-02-07T12:16:51.991Z,0.29
2023-02-07T12:20:14.393Z,0.27
2023-02-07T12:23:54.950Z,0.24
2023-02-07T12:27:09.687Z,0.26
2023-02-07T12:31:10.361Z,0.29
2023-02-07T12:34:35.755Z,0.33
2023-02-07T12:38:28.582Z,0.32
2023-02-07T12:42:39.363Z,0.23
2023-02-07T12:46:31.901Z,0.17
2023-02-07T12:50:01.713Z,0.16
2023-02-07T12:53:33.731Z,0.16
2023-02-07T12:57:09.731Z,0.21
2023-02-07T13:00:45.289Z,0.23
2023-02-07T13:04:15.792Z,0.27
2023-02-07T13:07:44.578Z,0.31
2023-02-07T13:11:40.995Z,0.26
2023-02-07T13:15:28.236Z,0.21
2023-02-07T13:19:15.517Z,0.18
2023-02-07T13:22:35.509Z,0.10
2023-02-07T13:29:32.185Z,0.09
2023-02-07T13:32:38.379Z,0.11
2023-02-07T13:35:59.021Z,0.14
2023-02-07T13:38:59.372Z,0.16
2023-02-07T13:42:14.370Z,0.20
2023-02-07T13:45:57.478Z,0.24
2023-02-07T13:50:13.241Z,0.19
2023-02-07T14:01:39.193Z,0.07
2023-02-07T14:05:40.680Z,0.06
2023-02-07T14:17:13.877Z,0.06
2023-02-07T14:21:02.584Z,0.07
2023-02-07T14:24:34.243Z,0.10
2023-02-07T14:30:09.847Z,0.18
2023-02-07T14:33:44.127Z,0.18
2023-02-07T14:36:31.118Z,0.13
2023-02-07T14:39:17.441Z,0.09
2023-02-07T14:42:33.925Z,0.07
2023-02-07T14:45:56.773Z,0.06
2023-02-07T14:48:57.692Z,0.09
2023-02-07T14:52:40.523Z,0.10
2023-02-07T14:55:45.757Z,0.10
2023-02-07T14:58:54.313Z,0.12
2023-02-07T15:02:27.738Z,0.14
2023-02-07T15:09:34.118Z,0.07
2023-02-07T15:12:30.592Z,0.04
2023-02-07T15:16:08.395Z,0.01
2023-02-07T15:19:15.695Z,-0.02
2023-02-07T15:25:53.941Z,0.03
2023-02-07T15:28:45.995Z,0.06
2023-02-07T15:31:45.810Z,0.09
2023-02-07T15:34:25.876Z,0.11
2023-02-07T15:38:20.783Z,0.12
2023-02-07T15:41:08.072Z,0.08
2023-02-07T15:44:08.781Z,0.04
2023-02-07T15:47:50.637Z,0.02
2023-02-07T15:50:29.155Z,-0.04
2023-02-07T15:53:37.766Z,-0.05
2023-02-07T15:56:34.708Z,-0.06
2023-02-07T15:59:33.809Z,-0.05
2023-02-07T16:02:31.312Z,-0.02
2023-02-07T16:17:24.976Z,0.02
2023-02-07T16:20:12.805Z,0.00
2023-02-07T16:23:03.331Z,-0.02
2023-02-07T16:28:56.652Z,-0.03
2023-02-07T16:31:31.850Z,-0.03
2023-02-07T16:34:23.232Z,-0.02
2023-02-07T16:37:07.233Z,-0.00
2023-02-07T16:40:09.743Z,-0.02
2023-02-07T16:43:08.384Z,-0.02
2023-02-07T16:45:48.316Z,-0.03
2023-02-07T16:48:22.826Z,-0.02
2023-02-07T16:51:02.505Z,-0.05
2023-02-07T16:54:09.099Z,-0.09
2023-02-07T16:57:29.819Z,-0.17
2023-02-07T17:00:49.059Z,-0.24
2023-02-07T17:03:37.205Z,-0.27
2023-02-07T17:10:08.406Z,-0.34
2023-02-07T17:12:56.716Z,-0.36
2023-02-07T17:16:14.598Z,-0.34
2023-02-07T17:19:23.692Z,-0.31
2023-02-07T17:22:10.529Z,-0.31
2023-02-07T17:24:55.271Z,-0.30
2023-02-07T17:28:02.370Z,-0.29
2023-02-07T17:30:41.299Z,-0.29
2023-02-07T17:33:29.489Z,-0.27
2023-02-07T17:36:47.675Z,-0.32
2023-02-07T17:40:57.469Z,-0.33
2023-02-07T17:43:51.281Z,-0.30
2023-02-07T17:46:33.744Z,-0.27
2023-02-07T17:49:43.354Z,-0.24
2023-02-07T17:53:08.062Z,-0.33
2023-02-07T17:55:56.908Z,-0.36
2023-02-07T17:59:26.194Z,-0.44
2023-02-07T18:02:13.592Z,-0.45
2023-02-07T18:13:04.882Z,-0.47
2023-02-07T18:16:07.388Z,-0.44
2023-02-07T18:20:37.545Z,-0.37
2023-02-07T18:27:31.089Z,-0.27
2023-02-07T18:33:01.240Z,-0.30
2023-02-07T18:37:02.180Z,-0.11
2023-02-07T18:39:48.080Z,-0.11
2023-02-07T18:42:36.780Z,-0.19
2023-02-07T18:45:21.285Z,-0.23
2023-02-07T18:47:52.098Z,-0.24
2023-02-07T18:50:31.869Z,-0.25
2023-02-07T18:53:21.285Z,-0.27
2023-02-07T18:56:16.463Z,-0.32
2023-02-07T18:58:54.187Z,-0.37
2023-02-07T19:02:09.077Z,-0.39
2023-02-07T19:05:15.162Z,-0.43
2023-02-07T19:08:18.678Z,-0.46
2023-02-07T19:11:21.703Z,-0.47
2023-02-07T19:14:25.292Z,-0.45
2023-02-07T19:17:16.804Z,-0.43
2023-02-07T19:20:03.715Z,-0.40
2023-02-07T19:22:55.029Z,-0.35
2023-02-07T19:26:25.334Z,-0.32
2023-02-07T19:33:15.507Z,-0.31
2023-02-07T19:36:45.649Z,-0.31
2023-02-07T19:50:28.789Z,-0.45
2023-02-07T19:53:05.078Z,-0.54
2023-02-07T19:56:25.391Z,-0.61
2023-02-07T20:02:01.845Z,-0.66
2023-02-07T20:04:39.550Z,-0.68
2023-02-07T20:08:19.458Z,-0.65
2023-02-07T20:10:51.914Z,-0.67
2023-02-07T20:13:43.842Z,-0.68
2023-02-07T20:16:47.523Z,-0.72
2023-02-07T20:19:38.227Z,-0.71
2023-02-07T20:22:29.310Z,-0.69
2023-02-07T20:25:01.712Z,-0.68
2023-02-07T20:27:39.969Z,-0.67
2023-02-07T20:30:24.652Z,-0.62
2023-02-07T20:33:07.216Z,-0.62
2023-02-07T20:35:50.023Z,-0.69
2023-02-07T20:38:33.801Z,-0.79
2023-02-07T20:41:29.301Z,-0.78
2023-02-07T20:44:16.351Z,-0.71
2023-02-07T20:46:54.886Z,-0.63
2023-02-07T20:49:34.804Z,-0.62
2023-02-07T20:52:35.333Z,-0.61
2023-02-07T20:55:34.069Z,-0.59
2023-02-07T20:58:29.462Z,-0.55
2023-02-07T21:01:22.727Z,-0.53
2023-02-07T21:04:06.695Z,-0.52
2023-02-07T21:06:42.579Z,-0.50
2023-02-07T21:10:13.052Z,-0.48
2023-02-07T21:13:19.225Z,-0.46
2023-02-07T21:16:25.431Z,-0.46
2023-02-07T21:19:42.081Z,-0.50
2023-02-07T21:23:11.677Z,-0.56
2023-02-07T21:29:43.859Z,-0.81
2023-02-07T21:32:33.564Z,-0.82
2023-02-07T21:35:29.594Z,-0.81
2023-02-07T21:38:19.150Z,-0.75
2023-02-07T21:41:34.236Z,-0.74
2023-02-07T21:44:28.260Z,-0.71
2023-02-07T21:47:08.184Z,-0.65
2023-02-07T21:50:41.708Z,-0.64
2023-02-07T21:53:29.282Z,-0.65
2023-02-07T21:56:21.110Z,-0.70
2023-02-07T21:59:36.136Z,-0.76
2023-02-07T22:02:20.631Z,-0.88
2023-02-07T22:04:59.314Z,-0.87
2023-02-07T22:11:09.036Z,-0.74
2023-02-07T22:17:15.387Z,-0.69
2023-02-07T22:19:55.899Z,-0.68
2023-02-07T22:23:06.342Z,-0.58
2023-02-07T22:26:00.190Z,-0.52
2023-02-07T22:29:06.298Z,-0.49
2023-02-07T22:32:02.731Z,-0.47
2023-02-07T22:38:49.151Z,-0.47
2023-02-07T22:41:44.054Z,-0.48
2023-02-07T22:44:42.160Z,-0.47
2023-02-07T22:47:31.507Z,-0.46
2023-02-07T22:50:13.761Z,-0.47
2023-02-07T22:53:24.311Z,-0.47
2023-02-07T22:56:06.604Z,-0.44
2023-02-07T22:58:45.282Z,-0.40
2023-02-07T23:01:45.061Z,-0.37
2023-02-07T23:08:19.979Z,-0.45
2023-02-07T23:11:30.398Z,-0.48
2023-02-07T23:14:29.679Z,-0.53
2023-02-07T23:17:41.260Z,-0.55
2023-02-07T23:20:50.608Z,-0.56
2023-02-07T23:23:41.353Z,-0.52
2023-02-07T23:26:40.698Z,-0.48
2023-02-07T23:35:08.727Z,-0.47
2023-02-07T23:37:58.815Z,-0.46
2023-02-07T23:40:59.490Z,-0.43
2023-02-07T23:47:35.943Z,-0.49
2023-02-07T23:53:48.872Z,-0.50
2023-02-07T23:57:15.177Z,-0.55
